Terminal Aerodrome Forecast
Issued by NWS

Current Version | Previous Version | Text Only | Print | Product List | Glossary Off
Versions: 1 2 3 4 5 6 7 8 9 10 11 12 13 14 15 16 17 18 19 20 21

000
FTUS41 KILN 082000 AAA
TAFLUK
TAF AMD
KLUK 082014Z 0820/0918 25012G22KT P6SM VCTS SCT040CB BKN060
     FM090000 24005KT P6SM SCT040
     FM090800 00000KT 4SM BR SCT040
      TEMPO 0909/0912 1SM BR SCT005
     FM091300 27008KT P6SM BKN040=

USA.gov is the U.S. government's official web portal to all federal, state and local government web resources and services.